sensor_id;sensor_type;location;lat;lon;timestamp;P1;durP1;ratioP1;P2;durP2;ratioP2
13834;SDS011;6988;52.614;13.500;2024-03-02T00:03:32;56.63;;;36.93;;
13834;SDS011;6988;52.614;13.500;2024-03-02T00:08:24;69.13;;;42.80;;
13834;SDS011;6988;52.614;13.500;2024-03-02T00:13:20;66.07;;;40.73;;
13834;SDS011;6988;52.614;13.500;2024-03-02T00:18:16;65.90;;;40.00;;
13834;SDS011;6988;52.614;13.500;2024-03-02T00:23:14;57.53;;;37.93;;
13834;SDS011;6988;52.614;13.500;2024-03-02T00:28:13;55.23;;;33.37;;
13834;SDS011;6988;52.614;13.500;2024-03-02T00:33:09;60.97;;;34.43;;
13834;SDS011;6988;52.614;13.500;2024-03-02T00:38:05;63.67;;;39.80;;
13834;SDS011;6988;52.614;13.500;2024-03-02T00:42:57;58.63;;;34.57;;
13834;SDS011;6988;52.614;13.500;2024-03-02T00:47:50;61.07;;;39.60;;
13834;SDS011;6988;52.614;13.500;2024-03-02T00:52:42;66.73;;;39.53;;
13834;SDS011;6988;52.614;13.500;2024-03-02T00:57:35;63.70;;;39.80;;
13834;SDS011;6988;52.614;13.500;2024-03-02T01:02:27;66.40;;;36.40;;
13834;SDS011;6988;52.614;13.500;2024-03-02T01:07:20;64.97;;;39.93;;
13834;SDS011;6988;52.614;13.500;2024-03-02T01:12:12;68.90;;;41.57;;
13834;SDS011;6988;52.614;13.500;2024-03-02T01:17:05;69.67;;;41.77;;
13834;SDS011;6988;52.614;13.500;2024-03-02T01:21:57;60.13;;;35.23;;
13834;SDS011;6988;52.614;13.500;2024-03-02T01:26:49;63.90;;;37.87;;
13834;SDS011;6988;52.614;13.500;2024-03-02T01:31:41;59.43;;;35.10;;
13834;SDS011;6988;52.614;13.500;2024-03-02T01:36:35;59.13;;;37.17;;
13834;SDS011;6988;52.614;13.500;2024-03-02T01:41:27;62.00;;;38.40;;
13834;SDS011;6988;52.614;13.500;2024-03-02T01:46:19;62.80;;;39.63;;
13834;SDS011;6988;52.614;13.500;2024-03-02T01:51:11;63.97;;;39.27;;
13834;SDS011;6988;52.614;13.500;2024-03-02T01:56:04;59.87;;;37.97;;
13834;SDS011;6988;52.614;13.500;2024-03-02T02:00:57;54.23;;;36.37;;
13834;SDS011;6988;52.614;13.500;2024-03-02T02:05:52;63.10;;;39.13;;
13834;SDS011;6988;52.614;13.500;2024-03-02T02:10:44;59.97;;;38.43;;
13834;SDS011;6988;52.614;13.500;2024-03-02T02:15:38;67.80;;;41.33;;
13834;SDS011;6988;52.614;13.500;2024-03-02T02:20:30;70.60;;;41.07;;
13834;SDS011;6988;52.614;13.500;2024-03-02T02:25:23;75.77;;;44.47;;
13834;SDS011;6988;52.614;13.500;2024-03-02T02:30:18;68.13;;;41.43;;
13834;SDS011;6988;52.614;13.500;2024-03-02T02:35:12;72.60;;;43.50;;
13834;SDS011;6988;52.614;13.500;2024-03-02T02:40:04;65.17;;;36.77;;
13834;SDS011;6988;52.614;13.500;2024-03-02T02:44:59;64.03;;;37.23;;
13834;SDS011;6988;52.614;13.500;2024-03-02T02:49:51;74.30;;;40.10;;
13834;SDS011;6988;52.614;13.500;2024-03-02T02:54:43;72.60;;;42.47;;
13834;SDS011;6988;52.614;13.500;2024-03-02T02:59:35;73.27;;;40.43;;
13834;SDS011;6988;52.614;13.500;2024-03-02T03:04:28;78.53;;;44.80;;
13834;SDS011;6988;52.614;13.500;2024-03-02T03:09:20;83.57;;;42.93;;
13834;SDS011;6988;52.614;13.500;2024-03-02T03:14:12;90.57;;;50.90;;
13834;SDS011;6988;52.614;13.500;2024-03-02T03:19:04;83.77;;;45.23;;
13834;SDS011;6988;52.614;13.500;2024-03-02T03:23:58;88.17;;;46.10;;
13834;SDS011;6988;52.614;13.500;2024-03-02T03:28:50;86.63;;;46.30;;
13834;SDS011;6988;52.614;13.500;2024-03-02T03:33:42;83.17;;;43.10;;
13834;SDS011;6988;52.614;13.500;2024-03-02T03:38:34;95.70;;;51.17;;
13834;SDS011;6988;52.614;13.500;2024-03-02T03:43:27;91.87;;;46.07;;
13834;SDS011;6988;52.614;13.500;2024-03-02T03:48:19;101.13;;;49.10;;
13834;SDS011;6988;52.614;13.500;2024-03-02T03:53:11;101.27;;;53.80;;
13834;SDS011;6988;52.614;13.500;2024-03-02T03:58:04;82.63;;;44.30;;
13834;SDS011;6988;52.614;13.500;2024-03-02T04:02:58;87.87;;;47.07;;
13834;SDS011;6988;52.614;13.500;2024-03-02T04:07:50;86.57;;;46.27;;
13834;SDS011;6988;52.614;13.500;2024-03-02T04:12:42;98.53;;;51.50;;
13834;SDS011;6988;52.614;13.500;2024-03-02T04:17:33;87.70;;;44.83;;
13834;SDS011;6988;52.614;13.500;2024-03-02T04:22:28;82.00;;;43.60;;
13834;SDS011;6988;52.614;13.500;2024-03-02T04:27:20;80.17;;;44.07;;
13834;SDS011;6988;52.614;13.500;2024-03-02T04:32:11;76.13;;;43.03;;
13834;SDS011;6988;52.614;13.500;2024-03-02T04:37:03;82.80;;;46.83;;
13834;SDS011;6988;52.614;13.500;2024-03-02T04:41:57;79.23;;;41.97;;
13834;SDS011;6988;52.614;13.500;2024-03-02T04:46:49;76.03;;;41.50;;
13834;SDS011;6988;52.614;13.500;2024-03-02T04:51:41;75.13;;;40.43;;
13834;SDS011;6988;52.614;13.500;2024-03-02T04:56:33;73.43;;;41.10;;
13834;SDS011;6988;52.614;13.500;2024-03-02T05:01:35;74.93;;;40.80;;
13834;SDS011;6988;52.614;13.500;2024-03-02T05:06:28;66.07;;;39.30;;
13834;SDS011;6988;52.614;13.500;2024-03-02T05:11:20;74.40;;;40.70;;
13834;SDS011;6988;52.614;13.500;2024-03-02T05:16:42;77.57;;;43.93;;
13834;SDS011;6988;52.614;13.500;2024-03-02T05:21:35;68.10;;;38.73;;
13834;SDS011;6988;52.614;13.500;2024-03-02T05:26:27;72.13;;;39.60;;
13834;SDS011;6988;52.614;13.500;2024-03-02T05:31:19;71.63;;;38.67;;
13834;SDS011;6988;52.614;13.500;2024-03-02T05:36:12;70.67;;;37.67;;
13834;SDS011;6988;52.614;13.500;2024-03-02T05:41:04;64.57;;;37.63;;
13834;SDS011;6988;52.614;13.500;2024-03-02T05:45:56;70.60;;;40.00;;
13834;SDS011;6988;52.614;13.500;2024-03-02T05:50:48;63.50;;;35.13;;
13834;SDS011;6988;52.614;13.500;2024-03-02T05:55:41;62.80;;;35.70;;
13834;SDS011;6988;52.614;13.500;2024-03-02T06:00:35;67.60;;;36.53;;
13834;SDS011;6988;52.614;13.500;2024-03-02T06:05:27;68.70;;;37.97;;
13834;SDS011;6988;52.614;13.500;2024-03-02T06:10:19;69.53;;;40.50;;
13834;SDS011;6988;52.614;13.500;2024-03-02T06:15:12;65.83;;;37.07;;
13834;SDS011;6988;52.614;13.500;2024-03-02T06:20:04;69.10;;;38.47;;
13834;SDS011;6988;52.614;13.500;2024-03-02T06:24:58;67.67;;;37.63;;
13834;SDS011;6988;52.614;13.500;2024-03-02T06:29:50;72.20;;;38.40;;
13834;SDS011;6988;52.614;13.500;2024-03-02T06:34:43;62.70;;;38.13;;
13834;SDS011;6988;52.614;13.500;2024-03-02T06:39:35;74.33;;;41.17;;
13834;SDS011;6988;52.614;13.500;2024-03-02T06:44:27;66.80;;;37.70;;
13834;SDS011;6988;52.614;13.500;2024-03-02T06:49:19;71.63;;;41.57;;
13834;SDS011;6988;52.614;13.500;2024-03-02T06:54:12;74.13;;;40.70;;
13834;SDS011;6988;52.614;13.500;2024-03-02T06:59:04;68.53;;;38.83;;
13834;SDS011;6988;52.614;13.500;2024-03-02T07:03:57;78.07;;;41.57;;
13834;SDS011;6988;52.614;13.500;2024-03-02T07:08:49;73.77;;;39.83;;
13834;SDS011;6988;52.614;13.500;2024-03-02T07:13:42;69.03;;;39.47;;
13834;SDS011;6988;52.614;13.500;2024-03-02T07:18:34;75.20;;;40.40;;
13834;SDS011;6988;52.614;13.500;2024-03-02T07:23:31;78.10;;;41.07;;
13834;SDS011;6988;52.614;13.500;2024-03-02T07:28:22;75.80;;;41.27;;
13834;SDS011;6988;52.614;13.500;2024-03-02T07:33:16;74.67;;;40.83;;
13834;SDS011;6988;52.614;13.500;2024-03-02T07:38:08;77.40;;;40.63;;
13834;SDS011;6988;52.614;13.500;2024-03-02T07:43:00;74.73;;;39.30;;
13834;SDS011;6988;52.614;13.500;2024-03-02T07:47:52;82.00;;;42.40;;
13834;SDS011;6988;52.614;13.500;2024-03-02T07:52:46;78.73;;;42.00;;
13834;SDS011;6988;52.614;13.500;2024-03-02T07:57:38;82.43;;;43.47;;
13834;SDS011;6988;52.614;13.500;2024-03-02T08:02:30;91.17;;;45.27;;
13834;SDS011;6988;52.614;13.500;2024-03-02T08:07:22;86.87;;;44.90;;
13834;SDS011;6988;52.614;13.500;2024-03-02T08:12:15;87.17;;;45.90;;
13834;SDS011;6988;52.614;13.500;2024-03-02T08:17:09;81.00;;;43.17;;
13834;SDS011;6988;52.614;13.500;2024-03-02T08:22:01;84.67;;;42.90;;
13834;SDS011;6988;52.614;13.500;2024-03-02T08:26:54;78.90;;;42.10;;
13834;SDS011;6988;52.614;13.500;2024-03-02T08:31:47;74.97;;;40.80;;
13834;SDS011;6988;52.614;13.500;2024-03-02T08:36:39;75.53;;;40.40;;
13834;SDS011;6988;52.614;13.500;2024-03-02T08:41:32;76.73;;;41.40;;
13834;SDS011;6988;52.614;13.500;2024-03-02T08:46:24;82.00;;;42.13;;
13834;SDS011;6988;52.614;13.500;2024-03-02T08:51:18;78.07;;;41.30;;
13834;SDS011;6988;52.614;13.500;2024-03-02T08:56:10;78.33;;;42.90;;
13834;SDS011;6988;52.614;13.500;2024-03-02T09:01:03;73.67;;;40.03;;
13834;SDS011;6988;52.614;13.500;2024-03-02T09:05:57;71.97;;;37.63;;
13834;SDS011;6988;52.614;13.500;2024-03-02T09:10:50;63.83;;;37.33;;
13834;SDS011;6988;52.614;13.500;2024-03-02T09:15:42;66.17;;;36.60;;
13834;SDS011;6988;52.614;13.500;2024-03-02T09:20:35;71.53;;;37.93;;
13834;SDS011;6988;52.614;13.500;2024-03-02T09:25:27;68.33;;;38.23;;
13834;SDS011;6988;52.614;13.500;2024-03-02T09:30:20;64.43;;;36.63;;
13834;SDS011;6988;52.614;13.500;2024-03-02T09:35:12;66.77;;;37.53;;
13834;SDS011;6988;52.614;13.500;2024-03-02T09:40:04;67.33;;;37.53;;
13834;SDS011;6988;52.614;13.500;2024-03-02T09:44:58;65.30;;;37.00;;
13834;SDS011;6988;52.614;13.500;2024-03-02T09:49:51;62.53;;;36.50;;
13834;SDS011;6988;52.614;13.500;2024-03-02T09:54:43;64.83;;;35.63;;
13834;SDS011;6988;52.614;13.500;2024-03-02T09:59:38;59.43;;;38.33;;
13834;SDS011;6988;52.614;13.500;2024-03-02T10:04:30;55.00;;;36.37;;
13834;SDS011;6988;52.614;13.500;2024-03-02T10:09:27;55.07;;;33.87;;
13834;SDS011;6988;52.614;13.500;2024-03-02T10:14:19;52.87;;;32.50;;
13834;SDS011;6988;52.614;13.500;2024-03-02T10:19:15;50.17;;;32.07;;
13834;SDS011;6988;52.614;13.500;2024-03-02T10:24:08;48.73;;;30.00;;
13834;SDS011;6988;52.614;13.500;2024-03-02T10:29:02;45.60;;;29.23;;
13834;SDS011;6988;52.614;13.500;2024-03-02T10:33:54;47.03;;;28.23;;
13834;SDS011;6988;52.614;13.500;2024-03-02T10:38:46;45.23;;;29.47;;
13834;SDS011;6988;52.614;13.500;2024-03-02T10:43:38;46.10;;;28.40;;
13834;SDS011;6988;52.614;13.500;2024-03-02T10:48:32;39.60;;;26.53;;
13834;SDS011;6988;52.614;13.500;2024-03-02T10:53:26;38.67;;;26.40;;
13834;SDS011;6988;52.614;13.500;2024-03-02T10:58:18;38.53;;;25.07;;
13834;SDS011;6988;52.614;13.500;2024-03-02T11:03:11;35.97;;;23.53;;
13834;SDS011;6988;52.614;13.500;2024-03-02T11:08:07;33.10;;;22.93;;
13834;SDS011;6988;52.614;13.500;2024-03-02T11:13:05;33.10;;;21.77;;
13834;SDS011;6988;52.614;13.500;2024-03-02T11:18:00;30.30;;;20.23;;
13834;SDS011;6988;52.614;13.500;2024-03-02T11:23:00;29.67;;;19.90;;
13834;SDS011;6988;52.614;13.500;2024-03-02T11:27:58;30.97;;;21.17;;
13834;SDS011;6988;52.614;13.500;2024-03-02T11:32:55;27.43;;;19.20;;
13834;SDS011;6988;52.614;13.500;2024-03-02T11:37:47;28.13;;;19.63;;
13834;SDS011;6988;52.614;13.500;2024-03-02T11:42:40;27.70;;;18.60;;
13834;SDS011;6988;52.614;13.500;2024-03-02T11:47:32;26.57;;;18.47;;
13834;SDS011;6988;52.614;13.500;2024-03-02T11:52:24;29.17;;;20.00;;
13834;SDS011;6988;52.614;13.500;2024-03-02T11:57:21;29.00;;;19.27;;
13834;SDS011;6988;52.614;13.500;2024-03-02T12:02:15;28.00;;;19.63;;
13834;SDS011;6988;52.614;13.500;2024-03-02T12:07:09;27.23;;;18.77;;
13834;SDS011;6988;52.614;13.500;2024-03-02T12:12:03;29.67;;;19.57;;
13834;SDS011;6988;52.614;13.500;2024-03-02T12:16:56;28.87;;;19.60;;
13834;SDS011;6988;52.614;13.500;2024-03-02T12:21:50;25.67;;;18.07;;
13834;SDS011;6988;52.614;13.500;2024-03-02T12:26:42;29.37;;;19.90;;
13834;SDS011;6988;52.614;13.500;2024-03-02T12:31:37;27.13;;;17.93;;
13834;SDS011;6988;52.614;13.500;2024-03-02T12:36:30;26.43;;;18.00;;
13834;SDS011;6988;52.614;13.500;2024-03-02T12:41:29;25.53;;;17.53;;
13834;SDS011;6988;52.614;13.500;2024-03-02T12:46:22;25.97;;;16.27;;
13834;SDS011;6988;52.614;13.500;2024-03-02T12:51:14;24.07;;;16.20;;
13834;SDS011;6988;52.614;13.500;2024-03-02T12:56:06;22.63;;;15.10;;
13834;SDS011;6988;52.614;13.500;2024-03-02T13:01:07;25.13;;;16.80;;
13834;SDS011;6988;52.614;13.500;2024-03-02T13:06:00;24.60;;;15.17;;
13834;SDS011;6988;52.614;13.500;2024-03-02T13:10:52;22.97;;;16.53;;
13834;SDS011;6988;52.614;13.500;2024-03-02T13:15:45;23.67;;;15.63;;
13834;SDS011;6988;52.614;13.500;2024-03-02T13:20:39;21.50;;;14.07;;
13834;SDS011;6988;52.614;13.500;2024-03-02T13:25:31;21.93;;;14.63;;
13834;SDS011;6988;52.614;13.500;2024-03-02T13:30:24;21.17;;;14.07;;
13834;SDS011;6988;52.614;13.500;2024-03-02T13:35:16;17.27;;;12.77;;
13834;SDS011;6988;52.614;13.500;2024-03-02T13:40:10;16.27;;;11.83;;
13834;SDS011;6988;52.614;13.500;2024-03-02T13:45:07;18.60;;;11.43;;
13834;SDS011;6988;52.614;13.500;2024-03-02T13:49:59;15.90;;;10.30;;
13834;SDS011;6988;52.614;13.500;2024-03-02T13:54:52;16.93;;;10.80;;
13834;SDS011;6988;52.614;13.500;2024-03-02T13:59:46;17.57;;;11.27;;
13834;SDS011;6988;52.614;13.500;2024-03-02T14:04:38;16.40;;;11.83;;
13834;SDS011;6988;52.614;13.500;2024-03-02T14:09:30;14.90;;;10.43;;
13834;SDS011;6988;52.614;13.500;2024-03-02T14:14:22;15.70;;;10.93;;
13834;SDS011;6988;52.614;13.500;2024-03-02T14:19:16;13.47;;;9.80;;
13834;SDS011;6988;52.614;13.500;2024-03-02T14:24:08;15.43;;;10.70;;
13834;SDS011;6988;52.614;13.500;2024-03-02T14:29:00;14.57;;;10.33;;
13834;SDS011;6988;52.614;13.500;2024-03-02T14:33:52;14.33;;;10.67;;
13834;SDS011;6988;52.614;13.500;2024-03-02T14:38:46;16.97;;;11.37;;
13834;SDS011;6988;52.614;13.500;2024-03-02T14:43:39;15.33;;;11.03;;
13834;SDS011;6988;52.614;13.500;2024-03-02T14:48:31;14.53;;;9.90;;
13834;SDS011;6988;52.614;13.500;2024-03-02T14:53:23;13.03;;;9.73;;
13834;SDS011;6988;52.614;13.500;2024-03-02T14:58:16;12.33;;;9.67;;
13834;SDS011;6988;52.614;13.500;2024-03-02T15:03:08;18.93;;;13.80;;
13834;SDS011;6988;52.614;13.500;2024-03-02T15:08:01;19.90;;;13.50;;
13834;SDS011;6988;52.614;13.500;2024-03-02T15:12:55;20.43;;;14.70;;
13834;SDS011;6988;52.614;13.500;2024-03-02T15:17:48;20.90;;;14.57;;
13834;SDS011;6988;52.614;13.500;2024-03-02T15:22:40;19.50;;;14.13;;
13834;SDS011;6988;52.614;13.500;2024-03-02T15:27:32;21.77;;;14.70;;
13834;SDS011;6988;52.614;13.500;2024-03-02T15:32:25;21.07;;;14.50;;
13834;SDS011;6988;52.614;13.500;2024-03-02T15:37:19;20.17;;;13.70;;
13834;SDS011;6988;52.614;13.500;2024-03-02T15:42:11;18.80;;;13.47;;
13834;SDS011;6988;52.614;13.500;2024-03-02T15:47:03;21.10;;;13.87;;
13834;SDS011;6988;52.614;13.500;2024-03-02T15:51:55;19.90;;;13.83;;
13834;SDS011;6988;52.614;13.500;2024-03-02T15:56:51;20.80;;;14.23;;
13834;SDS011;6988;52.614;13.500;2024-03-02T16:01:43;20.53;;;14.37;;
13834;SDS011;6988;52.614;13.500;2024-03-02T16:06:38;18.87;;;13.33;;
13834;SDS011;6988;52.614;13.500;2024-03-02T16:11:30;20.43;;;14.10;;
13834;SDS011;6988;52.614;13.500;2024-03-02T16:16:25;18.17;;;13.43;;
13834;SDS011;6988;52.614;13.500;2024-03-02T16:21:17;20.57;;;13.80;;
13834;SDS011;6988;52.614;13.500;2024-03-02T16:26:10;21.53;;;14.50;;
13834;SDS011;6988;52.614;13.500;2024-03-02T16:31:05;18.77;;;13.93;;
13834;SDS011;6988;52.614;13.500;2024-03-02T16:42:27;21.47;;;13.90;;
13834;SDS011;6988;52.614;13.500;2024-03-02T16:47:19;20.20;;;14.87;;
13834;SDS011;6988;52.614;13.500;2024-03-02T16:52:12;23.23;;;15.20;;
13834;SDS011;6988;52.614;13.500;2024-03-02T16:57:05;21.23;;;14.10;;
13834;SDS011;6988;52.614;13.500;2024-03-02T17:01:58;21.97;;;13.50;;
13834;SDS011;6988;52.614;13.500;2024-03-02T17:06:50;21.83;;;15.00;;
13834;SDS011;6988;52.614;13.500;2024-03-02T17:11:42;20.00;;;13.47;;
13834;SDS011;6988;52.614;13.500;2024-03-02T17:16:34;21.80;;;14.63;;
13834;SDS011;6988;52.614;13.500;2024-03-02T17:21:27;22.50;;;15.37;;
13834;SDS011;6988;52.614;13.500;2024-03-02T17:26:20;21.03;;;15.30;;
13834;SDS011;6988;52.614;13.500;2024-03-02T17:31:12;22.80;;;15.57;;
13834;SDS011;6988;52.614;13.500;2024-03-02T17:36:05;25.10;;;17.73;;
13834;SDS011;6988;52.614;13.500;2024-03-02T17:40:58;26.83;;;16.30;;
13834;SDS011;6988;52.614;13.500;2024-03-02T17:45:50;21.90;;;15.80;;
13834;SDS011;6988;52.614;13.500;2024-03-02T17:50:42;23.37;;;15.43;;
13834;SDS011;6988;52.614;13.500;2024-03-02T17:55:35;19.83;;;12.93;;
13834;SDS011;6988;52.614;13.500;2024-03-02T18:00:28;22.60;;;14.93;;
13834;SDS011;6988;52.614;13.500;2024-03-02T18:05:21;19.70;;;13.30;;
13834;SDS011;6988;52.614;13.500;2024-03-02T18:10:13;21.67;;;14.77;;
13834;SDS011;6988;52.614;13.500;2024-03-02T18:15:05;23.43;;;15.43;;
13834;SDS011;6988;52.614;13.500;2024-03-02T18:20:00;24.40;;;15.40;;
13834;SDS011;6988;52.614;13.500;2024-03-02T18:24:54;27.47;;;17.60;;
13834;SDS011;6988;52.614;13.500;2024-03-02T18:29:46;27.33;;;16.77;;
13834;SDS011;6988;52.614;13.500;2024-03-02T18:34:38;24.10;;;16.47;;
13834;SDS011;6988;52.614;13.500;2024-03-02T18:39:31;28.83;;;16.80;;
13834;SDS011;6988;52.614;13.500;2024-03-02T18:44:23;26.13;;;16.70;;
13834;SDS011;6988;52.614;13.500;2024-03-02T18:49:15;27.63;;;18.00;;
13834;SDS011;6988;52.614;13.500;2024-03-02T18:54:07;24.63;;;16.33;;
13834;SDS011;6988;52.614;13.500;2024-03-02T18:59:03;28.83;;;18.50;;
13834;SDS011;6988;52.614;13.500;2024-03-02T19:03:55;27.20;;;16.90;;
13834;SDS011;6988;52.614;13.500;2024-03-02T19:08:46;27.77;;;19.40;;
13834;SDS011;6988;52.614;13.500;2024-03-02T19:13:38;27.10;;;19.50;;
13834;SDS011;6988;52.614;13.500;2024-03-02T19:18:31;30.23;;;20.30;;
13834;SDS011;6988;52.614;13.500;2024-03-02T19:23:23;34.53;;;21.50;;
13834;SDS011;6988;52.614;13.500;2024-03-02T19:28:15;31.50;;;21.20;;
13834;SDS011;6988;52.614;13.500;2024-03-02T19:33:07;32.33;;;20.57;;
13834;SDS011;6988;52.614;13.500;2024-03-02T19:38:01;32.17;;;22.17;;
13834;SDS011;6988;52.614;13.500;2024-03-02T19:42:53;34.03;;;23.17;;
13834;SDS011;6988;52.614;13.500;2024-03-02T19:47:44;36.40;;;23.57;;
13834;SDS011;6988;52.614;13.500;2024-03-02T19:52:36;30.80;;;19.57;;
13834;SDS011;6988;52.614;13.500;2024-03-02T19:57:29;34.03;;;21.90;;
13834;SDS011;6988;52.614;13.500;2024-03-02T20:02:23;30.30;;;21.23;;
13834;SDS011;6988;52.614;13.500;2024-03-02T20:07:16;29.80;;;18.83;;
13834;SDS011;6988;52.614;13.500;2024-03-02T20:12:08;31.67;;;20.43;;
13834;SDS011;6988;52.614;13.500;2024-03-02T20:17:01;34.83;;;22.30;;
13834;SDS011;6988;52.614;13.500;2024-03-02T20:21:54;33.80;;;22.73;;
13834;SDS011;6988;52.614;13.500;2024-03-02T20:26:48;40.50;;;24.23;;
13834;SDS011;6988;52.614;13.500;2024-03-02T20:31:40;34.63;;;20.23;;
13834;SDS011;6988;52.614;13.500;2024-03-02T20:36:33;32.93;;;22.83;;
13834;SDS011;6988;52.614;13.500;2024-03-02T20:41:25;35.10;;;21.53;;
13834;SDS011;6988;52.614;13.500;2024-03-02T20:46:16;32.07;;;22.00;;
13834;SDS011;6988;52.614;13.500;2024-03-02T20:51:08;36.47;;;25.83;;
13834;SDS011;6988;52.614;13.500;2024-03-02T20:56:02;36.93;;;26.53;;
13834;SDS011;6988;52.614;13.500;2024-03-02T21:00:54;45.43;;;27.37;;
13834;SDS011;6988;52.614;13.500;2024-03-02T21:05:46;44.07;;;27.10;;
13834;SDS011;6988;52.614;13.500;2024-03-02T21:10:38;41.50;;;27.90;;
13834;SDS011;6988;52.614;13.500;2024-03-02T21:15:31;44.20;;;26.90;;
13834;SDS011;6988;52.614;13.500;2024-03-02T21:20:23;46.93;;;28.90;;
13834;SDS011;6988;52.614;13.500;2024-03-02T21:25:14;39.73;;;28.00;;
13834;SDS011;6988;52.614;13.500;2024-03-02T21:30:10;41.40;;;26.50;;
13834;SDS011;6988;52.614;13.500;2024-03-02T21:35:04;43.57;;;27.53;;
13834;SDS011;6988;52.614;13.500;2024-03-02T21:39:57;45.03;;;27.83;;
13834;SDS011;6988;52.614;13.500;2024-03-02T21:45:04;42.60;;;27.83;;
13834;SDS011;6988;52.614;13.500;2024-03-02T21:49:57;40.80;;;24.97;;
13834;SDS011;6988;52.614;13.500;2024-03-02T21:54:50;41.20;;;26.90;;
13834;SDS011;6988;52.614;13.500;2024-03-02T21:59:42;40.87;;;26.60;;
13834;SDS011;6988;52.614;13.500;2024-03-02T22:04:34;42.40;;;27.53;;
13834;SDS011;6988;52.614;13.500;2024-03-02T22:09:27;42.60;;;26.83;;
13834;SDS011;6988;52.614;13.500;2024-03-02T22:14:20;43.37;;;28.20;;
13834;SDS011;6988;52.614;13.500;2024-03-02T22:19:12;42.03;;;26.73;;
13834;SDS011;6988;52.614;13.500;2024-03-02T22:24:04;41.93;;;26.53;;
13834;SDS011;6988;52.614;13.500;2024-03-02T22:28:56;42.73;;;26.97;;
13834;SDS011;6988;52.614;13.500;2024-03-02T22:33:49;38.00;;;23.10;;
13834;SDS011;6988;52.614;13.500;2024-03-02T22:38:41;39.73;;;26.80;;
13834;SDS011;6988;52.614;13.500;2024-03-02T22:43:33;46.20;;;26.47;;
13834;SDS011;6988;52.614;13.500;2024-03-02T23:03:46;46.93;;;28.73;;
13834;SDS011;6988;52.614;13.500;2024-03-02T23:08:38;49.67;;;30.23;;
13834;SDS011;6988;52.614;13.500;2024-03-02T23:13:30;46.77;;;30.53;;
13834;SDS011;6988;52.614;13.500;2024-03-02T23:18:23;49.33;;;31.57;;
13834;SDS011;6988;52.614;13.500;2024-03-02T23:23:16;54.97;;;32.37;;
13834;SDS011;6988;52.614;13.500;2024-03-02T23:28:08;54.97;;;33.43;;
13834;SDS011;6988;52.614;13.500;2024-03-02T23:33:00;59.30;;;33.83;;
13834;SDS011;6988;52.614;13.500;2024-03-02T23:37:52;59.67;;;35.37;;
13834;SDS011;6988;52.614;13.500;2024-03-02T23:42:46;65.53;;;38.73;;
13834;SDS011;6988;52.614;13.500;2024-03-02T23:47:38;72.30;;;41.37;;
13834;SDS011;6988;52.614;13.500;2024-03-02T23:52:31;71.33;;;42.83;;
13834;SDS011;6988;52.614;13.500;2024-03-02T23:57:23;71.13;;;42.30;;
